< < Back
Terminal Aerodrome Forecast


Current Version              Previous Versions:   1  2  3  4  5  6  7  8  9  

Terminal Aerodrome Forecast

887
FTUS44 KBMX 241120
TAFTCL
TAF
KTCL 241120Z 2412/2512 VRB03KT P6SM SKC
     FM241700 01006KT P6SM SCT070=

Latest METAR

405
SAUS70 KWBC 250500 RRI
MTRTCL
METAR KTCL 250453Z AUTO 00000KT 10SM CLR 21/19 A3000 RMK AO2 SLP157
T02110194


USA.gov is the U.S. government's official web portal to all federal, state and local government web resources and services.